createdAt,value
2018-04-27T00:00:37.120Z,0
2018-04-27T00:01:46.226Z,0
2018-04-27T00:02:55.330Z,0
2018-04-27T00:04:04.541Z,0
2018-04-27T00:05:14.196Z,0
2018-04-27T00:06:23.029Z,0
2018-04-27T00:07:31.860Z,0
2018-04-27T00:08:40.692Z,0
2018-04-27T00:09:49.623Z,0
2018-04-27T00:10:58.528Z,0
2018-04-27T00:12:07.281Z,0
2018-04-27T00:13:16.389Z,0
2018-04-27T00:14:25.216Z,0
2018-04-27T00:15:34.478Z,0
2018-04-27T00:16:43.307Z,0
2018-04-27T00:17:52.137Z,0
2018-04-27T00:19:00.964Z,0
2018-04-27T00:20:10.071Z,0
2018-04-27T00:21:18.953Z,0
2018-04-27T00:22:28.052Z,0
2018-04-27T00:23:37.155Z,0
2018-04-27T00:24:46.261Z,0
2018-04-27T00:25:55.092Z,0
2018-04-27T00:27:04.219Z,0
2018-04-27T00:28:13.049Z,0
2018-04-27T00:29:21.876Z,0
2018-04-27T00:30:30.707Z,0
2018-04-27T00:31:39.534Z,0
2018-04-27T00:32:48.365Z,0
2018-04-27T00:33:57.197Z,0
2018-04-27T00:35:06.306Z,0
2018-04-27T00:36:15.140Z,0
2018-04-27T00:37:23.967Z,0
2018-04-27T00:38:32.945Z,0
2018-04-27T00:39:41.774Z,0
2018-04-27T00:40:50.609Z,0
2018-04-27T00:41:59.433Z,0
2018-04-27T00:43:08.261Z,0
2018-04-27T00:44:17.472Z,0
2018-04-27T00:45:26.303Z,0
2018-04-27T00:46:35.133Z,0
2018-04-27T00:47:43.965Z,0
2018-04-27T00:48:52.794Z,0
2018-04-27T00:50:01.672Z,0
2018-04-27T00:51:10.505Z,0
2018-04-27T00:52:19.333Z,0
2018-04-27T00:53:28.174Z,0
2018-04-27T00:54:37.570Z,0
2018-04-27T00:55:46.590Z,0
2018-04-27T00:56:55.690Z,0
2018-04-27T00:58:04.523Z,0
2018-04-27T00:59:13.351Z,0
2018-04-27T01:00:22.454Z,0
2018-04-27T01:01:31.344Z,0
2018-04-27T01:02:40.451Z,0
2018-04-27T01:03:49.283Z,0
2018-04-27T01:04:58.113Z,0
2018-04-27T01:06:06.944Z,0
2018-04-27T01:07:16.046Z,0
2018-04-27T01:08:24.875Z,0
2018-04-27T01:09:33.707Z,0
2018-04-27T01:10:42.538Z,0
2018-04-27T01:11:51.366Z,0
2018-04-27T01:13:00.244Z,0
2018-04-27T01:14:09.076Z,0
2018-04-27T01:15:18.179Z,0
2018-04-27T01:16:27.289Z,0
2018-04-27T01:17:36.121Z,0
2018-04-27T01:18:45.100Z,0
2018-04-27T01:19:53.929Z,0
2018-04-27T01:21:02.760Z,0
2018-04-27T01:22:11.591Z,0
2018-04-27T01:23:20.693Z,0
2018-04-27T01:24:29.621Z,0
2018-04-27T01:25:38.451Z,0
2018-04-27T01:26:47.282Z,0
2018-04-27T01:27:56.392Z,0
2018-04-27T01:29:05.220Z,0
2018-04-27T01:30:14.105Z,0
2018-04-27T01:31:22.934Z,0
2018-04-27T01:32:31.765Z,0
2018-04-27T01:33:40.598Z,0
2018-04-27T01:34:49.426Z,0
2018-04-27T01:35:58.559Z,0
2018-04-27T01:37:07.391Z,0
2018-04-27T01:38:16.222Z,0
2018-04-27T01:39:25.053Z,0
2018-04-27T01:40:33.891Z,0
2018-04-27T01:41:43.094Z,0
2018-04-27T01:42:52.204Z,0
2018-04-27T01:44:01.586Z,0
2018-04-27T01:45:10.707Z,0
2018-04-27T01:46:19.539Z,0
2018-04-27T01:47:28.918Z,0
2018-04-27T01:48:37.748Z,0
2018-04-27T01:49:46.577Z,0
2018-04-27T01:50:55.415Z,0
2018-04-27T01:52:04.798Z,0
2018-04-27T01:53:13.629Z,0
2018-04-27T01:54:22.471Z,0
2018-04-27T01:55:31.299Z,0
2018-04-27T01:56:40.128Z,0
2018-04-27T01:57:48.964Z,0
2018-04-27T01:58:57.893Z,0
2018-04-27T02:00:06.722Z,0
2018-04-27T02:01:15.550Z,0
2018-04-27T02:02:24.729Z,0
2018-04-27T02:03:33.563Z,0
2018-04-27T02:04:42.918Z,0
2018-04-27T02:05:51.748Z,0
2018-04-27T02:07:00.574Z,0
2018-04-27T02:08:09.404Z,0
2018-04-27T02:09:18.507Z,0
2018-04-27T02:10:27.620Z,0
2018-04-27T02:11:36.723Z,0
2018-04-27T02:12:45.551Z,0
2018-04-27T02:13:54.382Z,0
2018-04-27T02:15:03.216Z,0
2018-04-27T02:16:12.046Z,0
2018-04-27T02:17:20.875Z,0
2018-04-27T02:18:29.705Z,0
2018-04-27T02:19:38.808Z,0
2018-04-27T02:20:47.918Z,0
2018-04-27T02:21:56.894Z,0
2018-04-27T02:23:05.726Z,0
2018-04-27T02:24:14.824Z,0
2018-04-27T02:25:23.652Z,0
2018-04-27T02:26:32.482Z,0
2018-04-27T02:27:41.414Z,0
2018-04-27T02:28:50.522Z,0
2018-04-27T02:29:59.358Z,0
2018-04-27T02:31:08.182Z,0
2018-04-27T02:32:17.303Z,0
2018-04-27T02:33:26.234Z,0
2018-04-27T02:34:35.070Z,0
2018-04-27T02:35:43.904Z,0
2018-04-27T02:36:53.013Z,0
2018-04-27T02:38:02.395Z,0
2018-04-27T02:39:11.771Z,0
2018-04-27T02:40:20.881Z,0
2018-04-27T02:41:29.714Z,0
2018-04-27T02:42:38.817Z,0
2018-04-27T02:43:47.932Z,0
2018-04-27T02:44:57.435Z,0
2018-04-27T02:46:06.826Z,0
2018-04-27T02:47:15.937Z,0
2018-04-27T02:48:25.319Z,0
2018-04-27T02:49:34.153Z,0
2018-04-27T02:50:43.683Z,0
2018-04-27T02:51:52.512Z,0
2018-04-27T02:53:01.349Z,0
2018-04-27T02:54:10.455Z,0
2018-04-27T02:55:19.836Z,0
2018-04-27T02:56:28.712Z,0
2018-04-27T02:57:37.546Z,0
2018-04-27T02:58:46.652Z,0
2018-04-27T02:59:55.762Z,0
2018-04-27T03:01:04.598Z,0
2018-04-27T03:02:13.708Z,0
2018-04-27T03:03:22.815Z,0
2018-04-27T03:04:31.928Z,0
2018-04-27T03:05:41.034Z,0
2018-04-27T03:06:49.870Z,0
2018-04-27T03:07:59.377Z,0
2018-04-27T03:09:08.211Z,0
2018-04-27T03:10:17.313Z,0
2018-04-27T03:11:26.138Z,0
2018-04-27T03:12:35.241Z,0
2018-04-27T03:13:44.960Z,0
2018-04-27T03:14:53.789Z,0
2018-04-27T03:16:02.891Z,0
2018-04-27T03:17:11.996Z,0
2018-04-27T03:18:20.826Z,0
2018-04-27T03:19:29.708Z,0
2018-04-27T03:20:38.535Z,0
2018-04-27T03:21:47.367Z,0
2018-04-27T03:22:56.196Z,0
2018-04-27T03:24:05.413Z,0
2018-04-27T03:25:14.392Z,0
2018-04-27T03:26:23.496Z,0
2018-04-27T03:27:32.324Z,0
2018-04-27T03:28:41.426Z,0
2018-04-27T03:29:50.533Z,0
2018-04-27T03:31:00.246Z,0
2018-04-27T03:32:09.074Z,0
2018-04-27T03:33:18.178Z,0
2018-04-27T03:34:27.305Z,0
2018-04-27T03:35:36.134Z,0
2018-04-27T03:36:45.114Z,0
2018-04-27T03:37:53.949Z,0
2018-04-27T03:39:02.779Z,0
2018-04-27T03:40:11.881Z,0
2018-04-27T03:41:20.712Z,0
2018-04-27T03:42:29.641Z,0
2018-04-27T03:43:38.466Z,0
2018-04-27T03:44:47.580Z,0
2018-04-27T03:45:56.407Z,0
2018-04-27T03:47:05.237Z,0
2018-04-27T03:48:14.338Z,0
2018-04-27T03:49:23.445Z,0
2018-04-27T03:50:32.274Z,0
2018-04-27T03:51:41.101Z,5
2018-04-27T03:52:50.208Z,5
2018-04-27T03:53:59.094Z,5
2018-04-27T03:55:08.205Z,5
2018-04-27T03:56:17.311Z,5
2018-04-27T03:57:26.412Z,5
2018-04-27T03:58:35.239Z,5
2018-04-27T03:59:44.173Z,10
2018-04-27T04:00:52.997Z,10
2018-04-27T04:02:02.105Z,10
2018-04-27T04:03:10.929Z,10
2018-04-27T04:04:19.759Z,10
2018-04-27T04:05:29.389Z,15
2018-04-27T04:06:38.348Z,15
2018-04-27T04:07:47.176Z,15
2018-04-27T04:08:56.005Z,15
2018-04-27T04:10:04.837Z,15
2018-04-27T04:11:13.942Z,20
2018-04-27T04:12:23.049Z,20
2018-04-27T04:13:31.877Z,20
2018-04-27T04:14:40.711Z,25
2018-04-27T04:15:49.546Z,25
2018-04-27T04:16:58.651Z,25
2018-04-27T04:18:07.753Z,25
2018-04-27T04:19:16.586Z,30
2018-04-27T04:20:25.695Z,30
2018-04-27T04:21:34.521Z,30
2018-04-27T04:22:43.348Z,35
2018-04-27T04:23:52.175Z,35
2018-04-27T04:25:01.281Z,35
2018-04-27T04:26:10.110Z,40
2018-04-27T04:27:18.941Z,40
2018-04-27T04:28:27.771Z,40
2018-04-27T04:29:36.875Z,45
2018-04-27T04:30:45.703Z,45
2018-04-27T04:31:54.533Z,45
2018-04-27T04:33:03.358Z,50
2018-04-27T04:34:12.190Z,50
2018-04-27T04:35:21.022Z,50
2018-04-27T04:36:29.851Z,50
2018-04-27T04:37:38.682Z,55
2018-04-27T04:38:47.512Z,55
2018-04-27T04:39:56.340Z,55
2018-04-27T04:41:05.174Z,55
2018-04-27T04:42:14.429Z,60
2018-04-27T04:43:23.270Z,60
2018-04-27T04:44:32.363Z,65
2018-04-27T04:45:41.187Z,65
2018-04-27T04:46:50.018Z,70
2018-04-27T04:47:58.950Z,70
2018-04-27T04:49:08.057Z,75
2018-04-27T04:50:16.889Z,75
2018-04-27T04:51:25.717Z,80
2018-04-27T04:52:35.408Z,85
2018-04-27T04:53:44.669Z,85
2018-04-27T04:54:53.504Z,90
2018-04-27T04:56:03.171Z,90
2018-04-27T04:57:11.999Z,90
2018-04-27T04:58:21.109Z,90
2018-04-27T04:59:29.942Z,95
2018-04-27T05:00:39.049Z,95
2018-04-27T05:01:47.878Z,95
2018-04-27T05:02:57.455Z,100
2018-04-27T05:04:06.231Z,95
2018-04-27T05:05:15.163Z,100
2018-04-27T05:06:23.992Z,100
2018-04-27T05:07:32.820Z,105
2018-04-27T05:08:41.651Z,105
2018-04-27T05:09:50.475Z,105
2018-04-27T05:10:59.459Z,105
2018-04-27T05:12:08.290Z,110
2018-04-27T05:13:17.119Z,110
2018-04-27T05:14:26.225Z,115
2018-04-27T05:15:35.339Z,115
2018-04-27T05:16:44.370Z,115
2018-04-27T05:17:53.478Z,120
2018-04-27T05:19:02.308Z,125
2018-04-27T05:20:11.147Z,125
2018-04-27T05:21:20.536Z,130
2018-04-27T05:22:29.742Z,130
2018-04-27T05:23:38.845Z,130
2018-04-27T05:24:47.675Z,135
2018-04-27T05:25:56.511Z,135
2018-04-27T05:27:05.338Z,140
2018-04-27T05:28:14.273Z,145
2018-04-27T05:29:23.105Z,145
2018-04-27T05:30:32.505Z,145
2018-04-27T05:31:41.336Z,140
2018-04-27T05:32:50.166Z,145
2018-04-27T05:33:59.097Z,145
2018-04-27T05:35:07.931Z,145
2018-04-27T05:36:16.758Z,145
2018-04-27T05:37:25.593Z,145
2018-04-27T05:38:34.695Z,145
2018-04-27T05:39:43.851Z,145
2018-04-27T05:40:52.711Z,150
2018-04-27T05:42:01.675Z,150
2018-04-27T05:43:11.004Z,145
2018-04-27T05:44:20.119Z,150
2018-04-27T05:45:28.952Z,155
2018-04-27T05:46:38.063Z,160
2018-04-27T05:47:47.168Z,165
2018-04-27T05:48:56.404Z,170
2018-04-27T05:50:05.217Z,175
2018-04-27T05:51:14.727Z,180
2018-04-27T05:52:23.835Z,185
2018-04-27T05:53:32.739Z,185
2018-04-27T05:54:41.505Z,190
2018-04-27T05:55:50.329Z,195
2018-04-27T05:56:59.682Z,195
2018-04-27T05:58:08.514Z,200
2018-04-27T05:59:17.345Z,195
2018-04-27T06:00:26.178Z,200
2018-04-27T06:01:35.008Z,190
2018-04-27T06:02:43.988Z,185
2018-04-27T06:03:52.819Z,185
2018-04-27T06:05:01.650Z,180
2018-04-27T06:06:10.484Z,180
2018-04-27T06:07:19.317Z,175
2018-04-27T06:08:28.831Z,165
2018-04-27T06:09:37.666Z,165
2018-04-27T06:10:46.776Z,165
2018-04-27T06:11:55.884Z,160
2018-04-27T06:13:04.991Z,160
2018-04-27T06:14:14.125Z,160
2018-04-27T06:15:22.951Z,170
2018-04-27T06:16:31.780Z,175
2018-04-27T06:17:40.612Z,175
2018-04-27T06:18:49.443Z,180
2018-04-27T06:19:58.275Z,180
2018-04-27T06:21:07.107Z,190
2018-04-27T06:22:15.939Z,190
2018-04-27T06:23:24.775Z,190
2018-04-27T06:24:33.609Z,195
2018-04-27T06:25:43.156Z,200
2018-04-27T06:26:51.972Z,200
2018-04-27T06:28:00.806Z,205
2018-04-27T06:29:09.910Z,205
2018-04-27T06:30:18.744Z,205
2018-04-27T06:31:27.677Z,210
2018-04-27T06:32:36.509Z,215
2018-04-27T06:33:45.344Z,220
2018-04-27T06:34:54.172Z,225
2018-04-27T06:36:03.336Z,230
2018-04-27T06:37:12.223Z,230
2018-04-27T06:38:21.332Z,235
2018-04-27T06:39:30.655Z,235
2018-04-27T06:40:39.784Z,235
2018-04-27T06:41:48.612Z,240
2018-04-27T06:42:57.748Z,245
2018-04-27T06:44:06.854Z,245
2018-04-27T06:45:15.685Z,245
2018-04-27T06:46:24.570Z,245
2018-04-27T06:47:33.401Z,245
2018-04-27T06:48:42.853Z,245
2018-04-27T06:49:51.685Z,245
2018-04-27T06:51:00.516Z,250
2018-04-27T06:52:09.348Z,255
2018-04-27T06:53:18.183Z,260
2018-04-27T06:54:27.266Z,260
2018-04-27T06:55:36.099Z,260
2018-04-27T06:56:44.930Z,260
2018-04-27T06:57:53.761Z,260
2018-04-27T06:59:02.593Z,260
2018-04-27T07:00:11.475Z,260
2018-04-27T07:01:20.308Z,255
2018-04-27T07:02:29.139Z,250
2018-04-27T07:03:37.970Z,250
2018-04-27T07:04:46.805Z,255
2018-04-27T07:05:55.737Z,250
2018-04-27T07:07:04.846Z,250
2018-04-27T07:08:13.680Z,250
2018-04-27T07:09:22.516Z,255
2018-04-27T07:10:31.346Z,250
2018-04-27T07:11:40.616Z,250
2018-04-27T07:12:49.725Z,245
2018-04-27T07:13:58.916Z,240
2018-04-27T07:15:08.023Z,240
2018-04-27T07:16:16.855Z,235
2018-04-27T07:17:25.689Z,235
2018-04-27T07:18:34.799Z,235
2018-04-27T07:19:43.632Z,240
2018-04-27T07:20:52.753Z,240
2018-04-27T07:22:01.584Z,240
2018-04-27T07:23:10.522Z,245
2018-04-27T07:24:19.360Z,240
2018-04-27T07:25:28.192Z,245
2018-04-27T07:26:37.298Z,245
2018-04-27T07:27:46.131Z,250
2018-04-27T07:28:55.013Z,250
2018-04-27T07:30:03.846Z,250
2018-04-27T07:31:12.678Z,250
2018-04-27T07:32:21.784Z,255
2018-04-27T07:33:30.630Z,260
2018-04-27T07:34:39.513Z,260
2018-04-27T07:35:48.347Z,265
2018-04-27T07:36:57.457Z,260
2018-04-27T07:38:06.295Z,260
2018-04-27T07:39:15.123Z,260
2018-04-27T07:40:24.109Z,260
2018-04-27T07:41:32.942Z,260
2018-04-27T07:42:41.776Z,260
2018-04-27T07:43:50.883Z,260
2018-04-27T07:44:59.716Z,260
2018-04-27T07:46:08.652Z,260
2018-04-27T07:47:17.485Z,260
2018-04-27T07:48:26.319Z,260
2018-04-27T07:49:35.150Z,260
2018-04-27T07:50:43.984Z,255
2018-04-27T07:51:53.221Z,255
2018-04-27T07:53:02.056Z,250
2018-04-27T07:54:10.888Z,245
2018-04-27T07:55:19.777Z,240
2018-04-27T07:56:28.895Z,240
2018-04-27T07:57:37.779Z,235
2018-04-27T07:58:46.613Z,230
2018-04-27T07:59:55.447Z,230
2018-04-27T08:01:04.566Z,225
2018-04-27T08:02:13.768Z,220
2018-04-27T08:03:22.685Z,220
2018-04-27T08:04:31.518Z,220
2018-04-27T08:05:40.353Z,225
2018-04-27T08:06:49.189Z,225
2018-04-27T08:07:58.578Z,230
2018-04-27T08:09:07.563Z,230
2018-04-27T08:10:16.447Z,230
2018-04-27T08:11:25.323Z,235
2018-04-27T08:12:34.442Z,230
2018-04-27T08:13:43.274Z,230
2018-04-27T08:14:52.360Z,230
2018-04-27T08:16:01.195Z,230
2018-04-27T08:17:10.579Z,225
2018-04-27T08:18:19.411Z,225
2018-04-27T08:19:28.244Z,220
2018-04-27T08:20:37.477Z,225
2018-04-27T08:21:46.586Z,225
2018-04-27T08:22:55.420Z,220
2018-04-27T08:24:04.269Z,220
2018-04-27T08:25:13.378Z,220
2018-04-27T08:26:22.546Z,220
2018-04-27T08:27:31.656Z,220
2018-04-27T08:28:40.491Z,220
2018-04-27T08:29:49.325Z,220
2018-04-27T08:30:58.468Z,220
2018-04-27T08:32:07.396Z,220
2018-04-27T08:33:16.230Z,215
2018-04-27T08:34:25.073Z,220
2018-04-27T08:35:33.909Z,220
2018-04-27T08:36:42.744Z,220
2018-04-27T08:37:51.679Z,220
2018-04-27T08:39:00.512Z,220
2018-04-27T08:40:09.621Z,220
2018-04-27T08:41:18.454Z,220
2018-04-27T08:42:27.289Z,225
2018-04-27T08:43:36.175Z,225
2018-04-27T08:44:45.288Z,225
2018-04-27T08:45:54.115Z,250
2018-04-27T08:47:02.950Z,280
2018-04-27T08:48:11.786Z,295
2018-04-27T08:49:20.621Z,275
2018-04-27T08:50:29.502Z,255
2018-04-27T08:51:38.294Z,250
2018-04-27T08:52:47.131Z,250
2018-04-27T08:53:56.516Z,240
2018-04-27T08:55:05.402Z,240
2018-04-27T08:56:14.240Z,235
2018-04-27T08:57:23.075Z,235
2018-04-27T08:58:31.913Z,215
2018-04-27T08:59:40.751Z,195
2018-04-27T09:00:49.908Z,215
2018-04-27T09:01:58.748Z,240
2018-04-27T09:03:07.581Z,250
2018-04-27T09:04:16.415Z,250
2018-04-27T09:05:25.249Z,250
2018-04-27T09:06:34.455Z,270
2018-04-27T09:07:43.290Z,295
2018-04-27T09:08:52.123Z,295
2018-04-27T09:10:00.957Z,305
2018-04-27T09:11:09.792Z,300
2018-04-27T09:12:18.677Z,290
2018-04-27T09:13:27.510Z,285
2018-04-27T09:14:36.347Z,285
2018-04-27T09:15:45.183Z,285
2018-04-27T09:16:54.020Z,290
2018-04-27T09:18:02.957Z,285
2018-04-27T09:19:11.791Z,260
2018-04-27T09:20:20.674Z,300
2018-04-27T09:21:29.461Z,270
2018-04-27T09:22:38.293Z,295
2018-04-27T09:23:47.658Z,290
2018-04-27T09:24:56.488Z,300
2018-04-27T09:26:05.320Z,305
2018-04-27T09:27:14.152Z,315
2018-04-27T09:28:22.989Z,345
2018-04-27T09:29:32.178Z,360
2018-04-27T09:30:41.294Z,375
2018-04-27T09:31:50.130Z,385
2018-04-27T09:32:58.969Z,390
2018-04-27T09:34:07.807Z,370
2018-04-27T09:35:16.643Z,380
2018-04-27T09:36:25.577Z,395
2018-04-27T09:37:34.410Z,395
2018-04-27T09:38:43.250Z,355
2018-04-27T09:39:52.362Z,330
2018-04-27T09:41:01.901Z,310
2018-04-27T09:42:11.029Z,330
2018-04-27T09:43:19.878Z,305
2018-04-27T09:44:28.704Z,325
2018-04-27T09:45:38.088Z,360
2018-04-27T09:46:47.500Z,345
2018-04-27T09:47:56.611Z,330
2018-04-27T09:49:05.446Z,335
2018-04-27T09:50:14.567Z,340
2018-04-27T09:51:23.402Z,345
2018-04-27T09:52:32.238Z,340
2018-04-27T09:53:41.355Z,345
2018-04-27T09:54:50.475Z,335
2018-04-27T09:55:59.310Z,320
2018-04-27T09:57:08.147Z,330
2018-04-27T09:58:17.361Z,295
2018-04-27T09:59:26.473Z,285
2018-04-27T10:00:35.304Z,280
2018-04-27T10:01:44.413Z,305
2018-04-27T10:02:53.525Z,330
2018-04-27T10:04:02.610Z,390
2018-04-27T10:05:11.721Z,415
2018-04-27T10:06:20.837Z,420
2018-04-27T10:07:29.678Z,455
2018-04-27T10:08:38.520Z,450
2018-04-27T10:09:47.509Z,440
2018-04-27T10:10:56.348Z,465
2018-04-27T10:12:05.181Z,485
2018-04-27T10:13:14.025Z,480
2018-04-27T10:14:23.135Z,470
2018-04-27T10:15:32.070Z,490
2018-04-27T10:16:40.912Z,490
2018-04-27T10:17:49.752Z,505
2018-04-27T10:18:58.587Z,515
2018-04-27T10:20:07.425Z,530
2018-04-27T10:21:16.310Z,520
2018-04-27T10:22:25.147Z,485
2018-04-27T10:23:33.983Z,470
2018-04-27T10:24:42.820Z,485
2018-04-27T10:25:51.658Z,495
2018-04-27T10:27:00.745Z,495
2018-04-27T10:28:09.582Z,515
2018-04-27T10:29:18.693Z,515
2018-04-27T10:30:27.529Z,525
2018-04-27T10:31:36.369Z,530
2018-04-27T10:32:45.357Z,555
2018-04-27T10:33:54.192Z,555
2018-04-27T10:35:03.026Z,545
2018-04-27T10:36:11.864Z,560
2018-04-27T10:37:20.700Z,570
2018-04-27T10:38:29.644Z,595
2018-04-27T10:39:38.761Z,620
2018-04-27T10:40:47.598Z,640
2018-04-27T10:41:56.434Z,660
2018-04-27T10:43:05.635Z,675
2018-04-27T10:44:15.125Z,695
2018-04-27T10:45:23.961Z,700
2018-04-27T10:46:33.079Z,710
2018-04-27T10:47:41.923Z,725
2018-04-27T10:48:51.033Z,740
2018-04-27T10:50:00.456Z,755
2018-04-27T10:51:09.293Z,750
2018-04-27T10:52:18.130Z,765
2018-04-27T10:53:26.974Z,760
2018-04-27T10:54:36.361Z,725
2018-04-27T10:55:45.351Z,690
2018-04-27T10:56:54.734Z,675
2018-04-27T10:58:03.574Z,685
2018-04-27T10:59:12.689Z,715
2018-04-27T11:00:21.527Z,725
2018-04-27T11:01:30.987Z,730
2018-04-27T11:02:39.825Z,755
2018-04-27T11:03:48.666Z,795
2018-04-27T11:04:57.502Z,825
2018-04-27T11:06:06.341Z,810
2018-04-27T11:07:15.185Z,805
2018-04-27T11:08:24.312Z,795
2018-04-27T11:09:33.159Z,805
2018-04-27T11:10:41.999Z,780
2018-04-27T11:11:51.117Z,750
2018-04-27T11:12:59.958Z,715
2018-04-27T11:14:08.796Z,665
2018-04-27T11:15:17.633Z,640
2018-04-27T11:16:26.493Z,655
2018-04-27T11:17:35.622Z,680
2018-04-27T11:18:44.712Z,720
2018-04-27T11:19:53.619Z,765
2018-04-27T11:21:02.463Z,795
2018-04-27T11:22:11.301Z,795
2018-04-27T11:23:20.140Z,770
2018-04-27T11:24:29.261Z,770
2018-04-27T11:25:38.409Z,785
2018-04-27T11:26:47.247Z,810
2018-04-27T11:27:56.116Z,835
2018-04-27T11:29:04.956Z,850
2018-04-27T11:30:13.846Z,860
2018-04-27T11:31:22.684Z,825
2018-04-27T11:32:31.522Z,835
2018-04-27T11:33:40.364Z,840
2018-04-27T11:34:49.201Z,850
2018-04-27T11:35:58.430Z,860
2018-04-27T11:37:07.268Z,830
2018-04-27T11:38:16.108Z,780
2018-04-27T11:39:24.959Z,755
2018-04-27T11:40:34.345Z,790
2018-04-27T11:41:43.503Z,840
2018-04-27T11:42:52.341Z,880
2018-04-27T11:44:01.179Z,880
2018-04-27T11:45:10.018Z,880
2018-04-27T11:46:18.858Z,880
2018-04-27T11:47:27.698Z,890
2018-04-27T11:48:36.537Z,890
2018-04-27T11:49:45.377Z,905
2018-04-27T11:50:54.216Z,915
2018-04-27T11:52:03.056Z,930
2018-04-27T11:53:11.977Z,1120
2018-04-27T11:54:20.744Z,1345
2018-04-27T11:55:29.583Z,1280
2018-04-27T11:56:38.423Z,1345
2018-04-27T11:57:47.265Z,1485
2018-04-27T11:58:56.205Z,1555
2018-04-27T12:00:05.045Z,1545
2018-04-27T12:01:13.887Z,1690
2018-04-27T12:02:22.731Z,1550
2018-04-27T12:03:31.570Z,1500
2018-04-27T12:04:40.463Z,1445
2018-04-27T12:05:49.301Z,1370
2018-04-27T12:06:58.159Z,1320
2018-04-27T12:08:07.557Z,1235
2018-04-27T12:09:16.398Z,1110
2018-04-27T12:10:25.288Z,1020
2018-04-27T12:11:34.358Z,1020
2018-04-27T12:12:43.201Z,980
2018-04-27T12:13:52.040Z,1115
2018-04-27T12:15:01.313Z,1095
2018-04-27T12:16:10.352Z,1230
2018-04-27T12:17:19.194Z,1375
2018-04-27T12:18:28.314Z,1555
2018-04-27T12:19:37.447Z,1435
2018-04-27T12:20:46.564Z,1750
2018-04-27T12:21:55.655Z,2300
2018-04-27T12:23:04.775Z,2020
2018-04-27T12:24:13.892Z,2070
2018-04-27T12:25:23.003Z,1895
2018-04-27T12:26:31.847Z,1505
2018-04-27T12:27:40.699Z,1145
2018-04-27T12:28:49.822Z,1240
2018-04-27T12:29:58.944Z,1290
2018-04-27T12:31:08.187Z,955
2018-04-27T12:32:16.977Z,1030
2018-04-27T12:33:26.092Z,2085
2018-04-27T12:34:34.934Z,1985
2018-04-27T12:35:43.777Z,2220
2018-04-27T12:36:52.621Z,2800
2018-04-27T12:38:01.463Z,840
2018-04-27T12:39:10.306Z,1820
2018-04-27T12:40:19.148Z,1725
2018-04-27T12:41:28.266Z,1820
2018-04-27T12:42:37.108Z,790
2018-04-27T12:43:46.226Z,695
2018-04-27T12:44:55.097Z,680
2018-04-27T12:46:03.911Z,765
2018-04-27T12:47:12.755Z,3295
2018-04-27T12:48:21.594Z,3285
2018-04-27T12:49:30.719Z,2565
2018-04-27T12:50:39.836Z,2200
2018-04-27T12:51:48.677Z,1070
2018-04-27T12:52:57.521Z,1545
2018-04-27T12:54:06.365Z,2100
2018-04-27T12:55:15.480Z,990
2018-04-27T12:56:24.601Z,830
2018-04-27T12:57:33.455Z,760
2018-04-27T12:58:42.289Z,810
2018-04-27T12:59:51.137Z,970
2018-04-27T13:01:00.248Z,1330
2018-04-27T13:02:09.093Z,1395
2018-04-27T13:03:18.482Z,1140
2018-04-27T13:04:27.903Z,1255
2018-04-27T13:05:36.745Z,1420
2018-04-27T13:06:45.588Z,1550
2018-04-27T13:07:54.505Z,1795
2018-04-27T13:09:03.275Z,1820
2018-04-27T13:10:12.219Z,1630
2018-04-27T13:11:21.345Z,1315
2018-04-27T13:12:31.028Z,1350
2018-04-27T13:13:39.870Z,1310
2018-04-27T13:14:49.269Z,1160
2018-04-27T13:15:58.266Z,1155
2018-04-27T13:17:07.109Z,1155
2018-04-27T13:18:16.227Z,1100
2018-04-27T13:19:25.067Z,1075
2018-04-27T13:20:33.911Z,1000
2018-04-27T13:21:43.080Z,920
2018-04-27T13:22:52.473Z,860
2018-04-27T13:24:01.312Z,830
2018-04-27T13:25:10.159Z,785
2018-04-27T13:26:19.048Z,745
2018-04-27T13:27:27.841Z,695
2018-04-27T13:28:36.682Z,665
2018-04-27T13:29:45.800Z,650
2018-04-27T13:30:54.640Z,645
2018-04-27T13:32:03.765Z,655
2018-04-27T13:33:12.981Z,705
2018-04-27T13:34:21.852Z,845
2018-04-27T13:35:30.985Z,1515
2018-04-27T13:36:39.823Z,2185
2018-04-27T13:37:48.945Z,2755
2018-04-27T13:38:57.985Z,3645
2018-04-27T13:40:07.248Z,3610
2018-04-27T13:41:16.364Z,3665
2018-04-27T13:42:25.213Z,3535
2018-04-27T13:43:34.336Z,3620
2018-04-27T13:44:43.836Z,3620
2018-04-27T13:45:53.236Z,3655
2018-04-27T13:47:02.077Z,3320
2018-04-27T13:48:11.205Z,3285
2018-04-27T13:49:20.050Z,3200
2018-04-27T13:50:28.996Z,1935
2018-04-27T13:51:37.845Z,2315
2018-04-27T13:52:46.692Z,3475
2018-04-27T13:53:55.537Z,3550
2018-04-27T13:55:04.386Z,3480
2018-04-27T13:56:13.636Z,3655
2018-04-27T13:57:22.497Z,3560
2018-04-27T13:58:31.617Z,3620
2018-04-27T13:59:40.468Z,3555
2018-04-27T14:00:49.320Z,3500
2018-04-27T14:01:58.323Z,3960
2018-04-27T14:03:07.174Z,2510
2018-04-27T14:04:16.302Z,1425
2018-04-27T14:05:25.155Z,2690
2018-04-27T14:06:34.283Z,1755
2018-04-27T14:07:43.331Z,1105
2018-04-27T14:08:52.182Z,1865
2018-04-27T14:10:01.032Z,3950
2018-04-27T14:11:09.919Z,2000
2018-04-27T14:12:18.744Z,1915
2018-04-27T14:13:27.694Z,1800
2018-04-27T14:14:36.545Z,3205
2018-04-27T14:15:45.395Z,2865
2018-04-27T14:16:54.254Z,2300
2018-04-27T14:18:03.379Z,1950
2018-04-27T14:19:12.232Z,2920
2018-04-27T14:20:21.079Z,1230
2018-04-27T14:21:29.929Z,910
2018-04-27T14:22:38.774Z,850
2018-04-27T14:23:47.617Z,865
2018-04-27T14:24:56.614Z,910
2018-04-27T14:26:05.463Z,930
2018-04-27T14:27:14.309Z,960
2018-04-27T14:28:23.155Z,910
2018-04-27T14:29:32.001Z,850
2018-04-27T14:30:40.852Z,860
2018-04-27T14:31:49.975Z,800
2018-04-27T14:32:58.818Z,750
2018-04-27T14:34:07.663Z,715
2018-04-27T14:35:16.509Z,695
2018-04-27T14:36:25.677Z,680
2018-04-27T14:37:34.520Z,655
2018-04-27T14:38:43.365Z,630
2018-04-27T14:39:52.206Z,635
2018-04-27T14:41:01.492Z,640
2018-04-27T14:42:10.258Z,615
2018-04-27T14:43:19.100Z,580
2018-04-27T14:44:28.223Z,570
2018-04-27T14:45:37.069Z,590
2018-04-27T14:46:46.708Z,605
2018-04-27T14:47:55.549Z,615
2018-04-27T14:49:05.092Z,705
2018-04-27T14:50:14.308Z,720
2018-04-27T14:51:23.151Z,725
2018-04-27T14:52:32.439Z,700
2018-04-27T14:53:41.265Z,640
2018-04-27T14:54:50.101Z,575
2018-04-27T14:55:58.942Z,525
2018-04-27T14:57:07.783Z,495
2018-04-27T14:58:16.624Z,440
2018-04-27T14:59:25.765Z,395
2018-04-27T15:00:34.607Z,360
2018-04-27T15:01:43.721Z,335
2018-04-27T15:02:52.559Z,325
2018-04-27T15:04:01.398Z,325
2018-04-27T15:05:10.614Z,325
2018-04-27T15:06:19.455Z,325
2018-04-27T15:07:28.295Z,330
2018-04-27T15:08:37.137Z,370
2018-04-27T15:09:46.250Z,450
2018-04-27T15:10:55.241Z,600
2018-04-27T15:12:04.103Z,690
2018-04-27T15:13:12.918Z,795
2018-04-27T15:14:21.760Z,775
2018-04-27T15:15:30.601Z,880
2018-04-27T15:16:39.590Z,890
2018-04-27T15:17:48.428Z,720
2018-04-27T15:18:57.264Z,1300
2018-04-27T15:20:06.383Z,1065
2018-04-27T15:21:15.223Z,735
2018-04-27T15:22:24.214Z,685
2018-04-27T15:23:33.345Z,575
2018-04-27T15:24:42.460Z,510
2018-04-27T15:25:51.854Z,485
2018-04-27T15:27:00.708Z,460
2018-04-27T15:28:09.755Z,455
2018-04-27T15:29:18.599Z,455
2018-04-27T15:30:27.436Z,455
2018-04-27T15:31:36.275Z,460
2018-04-27T15:32:45.116Z,480
2018-04-27T15:33:54.488Z,555
2018-04-27T15:35:03.328Z,580
2018-04-27T15:36:12.168Z,620
2018-04-27T15:37:21.351Z,605
2018-04-27T15:38:30.191Z,640
2018-04-27T15:39:39.075Z,660
2018-04-27T15:40:48.220Z,690
2018-04-27T15:41:57.153Z,615
2018-04-27T15:43:06.331Z,565
2018-04-27T15:44:15.614Z,510
2018-04-27T15:45:24.854Z,500
2018-04-27T15:46:33.904Z,570
2018-04-27T15:47:43.086Z,540
2018-04-27T15:48:51.924Z,495
2018-04-27T15:50:00.765Z,460
2018-04-27T15:51:09.764Z,420
2018-04-27T15:52:18.879Z,365
2018-04-27T15:53:27.720Z,315
2018-04-27T15:54:36.561Z,270
2018-04-27T15:55:45.671Z,240
2018-04-27T15:56:54.664Z,215
2018-04-27T15:58:03.503Z,220
2018-04-27T15:59:12.344Z,235
2018-04-27T16:00:21.186Z,230
2018-04-27T16:01:30.025Z,230
2018-04-27T16:02:38.910Z,285
2018-04-27T16:03:47.751Z,385